createdAt,value
2023-02-26T00:00:22.222Z,43.60
2023-02-26T00:03:10.396Z,43.60
2023-02-26T00:06:02.120Z,43.60
2023-02-26T00:08:52.116Z,43.60
2023-02-26T00:11:40.671Z,43.70
2023-02-26T00:14:30.187Z,43.60
2023-02-26T00:17:32.537Z,43.60
2023-02-26T00:20:21.252Z,43.60
2023-02-26T00:23:14.287Z,43.60
2023-02-26T00:26:03.857Z,43.60
2023-02-26T00:28:52.817Z,43.70
2023-02-26T00:31:41.906Z,43.70
2023-02-26T00:34:30.899Z,43.70
2023-02-26T00:37:33.059Z,43.70
2023-02-26T00:40:26.030Z,43.80
2023-02-26T00:43:19.121Z,43.70
2023-02-26T00:46:17.702Z,43.70
2023-02-26T00:49:16.939Z,43.60
2023-02-26T00:52:11.729Z,43.70
2023-02-26T00:54:59.989Z,43.70
2023-02-26T00:57:48.314Z,43.80
2023-02-26T01:00:40.597Z,43.70
2023-02-26T01:03:29.329Z,43.70
2023-02-26T01:06:21.496Z,43.60
2023-02-26T01:09:17.149Z,43.70
2023-02-26T01:12:08.404Z,43.60
2023-02-26T01:14:57.201Z,43.60
2023-02-26T01:17:51.418Z,43.50
2023-02-26T01:20:45.332Z,43.60
2023-02-26T01:23:37.537Z,43.60
2023-02-26T01:26:29.229Z,43.60
2023-02-26T01:29:18.037Z,43.60
2023-02-26T01:32:11.544Z,43.60
2023-02-26T01:35:10.889Z,43.60
2023-02-26T01:38:04.138Z,43.50
2023-02-26T01:41:24.924Z,43.50
2023-02-26T01:44:21.044Z,43.50
2023-02-26T01:47:17.995Z,43.50
2023-02-26T01:50:15.136Z,43.50
2023-02-26T01:53:22.847Z,43.50
2023-02-26T01:56:17.338Z,43.50
2023-02-26T01:59:06.180Z,43.40
2023-02-26T02:01:57.394Z,43.40
2023-02-26T02:04:46.874Z,43.40
2023-02-26T02:07:36.629Z,43.40
2023-02-26T02:10:25.349Z,43.40
2023-02-26T02:13:25.442Z,43.30
2023-02-26T02:16:22.479Z,43.30
2023-02-26T02:19:31.545Z,43.40
2023-02-26T02:22:47.228Z,43.40
2023-02-26T02:26:08.661Z,43.30
2023-02-26T02:29:33.676Z,43.30
2023-02-26T02:32:29.594Z,43.30
2023-02-26T02:35:23.721Z,43.40
2023-02-26T02:38:17.735Z,43.20
2023-02-26T02:41:11.571Z,43.20
2023-02-26T02:44:02.354Z,43.20
2023-02-26T02:46:55.132Z,43.20
2023-02-26T02:49:49.464Z,43.20
2023-02-26T02:52:43.796Z,43.20
2023-02-26T02:55:36.026Z,43.20
2023-02-26T02:58:29.347Z,43.20
2023-02-26T03:01:21.071Z,43.20
2023-02-26T03:04:11.910Z,43.20
2023-02-26T03:07:01.610Z,43.10
2023-02-26T03:09:50.162Z,43.10
2023-02-26T03:12:38.391Z,43.10
2023-02-26T03:15:35.888Z,43.10
2023-02-26T03:18:32.832Z,43.20
2023-02-26T03:21:30.361Z,43.20
2023-02-26T03:24:27.872Z,43.10
2023-02-26T03:27:24.975Z,43.10
2023-02-26T03:30:17.619Z,43.20
2023-02-26T03:33:12.083Z,43.10
2023-02-26T03:36:06.415Z,43.00
2023-02-26T03:38:59.879Z,43.00
2023-02-26T03:41:57.243Z,43.00
2023-02-26T03:44:50.520Z,43.00
2023-02-26T03:47:40.617Z,43.00
2023-02-26T03:50:33.744Z,43.00
2023-02-26T03:53:26.509Z,43.10
2023-02-26T03:56:19.122Z,43.00
2023-02-26T03:59:09.405Z,43.10
2023-02-26T04:02:02.067Z,42.90
2023-02-26T04:04:54.929Z,42.90
2023-02-26T04:07:43.479Z,42.90
2023-02-26T04:10:36.418Z,42.90
2023-02-26T04:13:25.049Z,42.90
2023-02-26T04:16:15.234Z,42.90
2023-02-26T04:19:03.509Z,42.90
2023-02-26T04:21:51.970Z,42.90
2023-02-26T04:24:40.273Z,42.90
2023-02-26T04:27:28.483Z,42.90
2023-02-26T04:30:16.927Z,42.90
2023-02-26T04:33:06.647Z,42.90
2023-02-26T04:35:54.933Z,42.90
2023-02-26T04:38:43.198Z,42.90
2023-02-26T04:41:32.012Z,42.90
2023-02-26T04:44:20.244Z,42.90
2023-02-26T04:47:08.676Z,42.90
2023-02-26T04:49:58.331Z,42.80
2023-02-26T04:52:46.615Z,42.80
2023-02-26T04:55:35.615Z,42.90
2023-02-26T04:58:24.076Z,42.70
2023-02-26T05:01:13.741Z,42.70
2023-02-26T05:04:02.347Z,42.70
2023-02-26T05:06:52.323Z,42.70
2023-02-26T05:09:40.625Z,42.70
2023-02-26T05:12:28.909Z,42.70
2023-02-26T05:15:17.439Z,42.70
2023-02-26T05:18:05.816Z,42.70
2023-02-26T05:20:55.015Z,42.70
2023-02-26T05:23:44.713Z,42.70
2023-02-26T05:26:33.019Z,42.70
2023-02-26T05:29:21.257Z,42.70
2023-02-26T05:32:09.880Z,42.70
2023-02-26T05:34:58.149Z,42.60
2023-02-26T05:37:46.456Z,42.70
2023-02-26T05:40:36.211Z,42.60
2023-02-26T05:43:24.499Z,42.60
2023-02-26T05:46:14.137Z,42.60
2023-02-26T05:49:02.557Z,42.60
2023-02-26T05:51:50.878Z,42.70
2023-02-26T05:54:39.048Z,42.60
2023-02-26T05:57:28.941Z,42.50
2023-02-26T06:00:18.003Z,42.60
2023-02-26T06:03:06.424Z,42.50
2023-02-26T06:05:54.750Z,42.50
2023-02-26T06:08:43.119Z,42.50
2023-02-26T06:11:33.992Z,42.50
2023-02-26T06:14:23.874Z,42.50
2023-02-26T06:17:12.251Z,42.50
2023-02-26T06:20:00.589Z,42.40
2023-02-26T06:22:50.768Z,42.40
2023-02-26T06:25:39.199Z,42.30
2023-02-26T06:28:27.737Z,42.30
2023-02-26T06:31:17.324Z,42.30
2023-02-26T06:34:05.562Z,42.30
2023-02-26T06:36:53.953Z,42.30
2023-02-26T06:39:42.286Z,42.20
2023-02-26T06:42:30.493Z,42.20
2023-02-26T06:45:18.922Z,42.20
2023-02-26T06:48:08.757Z,42.20
2023-02-26T06:50:57.197Z,42.10
2023-02-26T06:53:45.526Z,42.00
2023-02-26T06:56:34.136Z,42.00
2023-02-26T06:59:22.555Z,41.90
2023-02-26T07:02:17.539Z,41.90
2023-02-26T07:05:08.685Z,41.80
2023-02-26T07:07:58.344Z,41.80
2023-02-26T07:10:49.306Z,41.70
2023-02-26T07:13:39.233Z,41.60
2023-02-26T07:16:28.164Z,41.70
2023-02-26T07:19:16.777Z,41.50
2023-02-26T07:22:06.478Z,41.50
2023-02-26T07:24:56.107Z,41.50
2023-02-26T07:27:44.386Z,41.40
2023-02-26T07:30:32.830Z,41.40
2023-02-26T07:33:21.288Z,41.30
2023-02-26T07:36:09.664Z,41.30
2023-02-26T07:38:59.403Z,41.20
2023-02-26T07:41:47.772Z,41.10
2023-02-26T07:44:36.147Z,41.10
2023-02-26T07:47:24.443Z,41.10
2023-02-26T07:50:13.389Z,41.00
2023-02-26T07:53:01.689Z,41.00
2023-02-26T07:55:51.332Z,40.90
2023-02-26T07:58:39.677Z,40.90
2023-02-26T08:01:27.974Z,40.80
2023-02-26T08:04:16.728Z,40.70
2023-02-26T08:07:05.222Z,40.60
2023-02-26T08:09:53.966Z,40.60
2023-02-26T08:12:43.757Z,40.60
2023-02-26T08:15:32.005Z,40.60
2023-02-26T08:18:20.583Z,40.50
2023-02-26T08:21:08.760Z,40.50
2023-02-26T08:23:57.223Z,40.50
2023-02-26T08:26:46.300Z,40.50
2023-02-26T08:29:35.802Z,40.40
2023-02-26T08:32:24.282Z,40.40
2023-02-26T08:35:12.788Z,40.30
2023-02-26T08:38:01.127Z,39.60
2023-02-26T08:40:52.754Z,38.30
2023-02-26T08:43:41.420Z,37.40
2023-02-26T08:46:31.198Z,36.80
2023-02-26T08:49:19.471Z,36.00
2023-02-26T08:52:07.961Z,35.60
2023-02-26T08:54:56.386Z,35.10
2023-02-26T08:57:44.732Z,34.50
2023-02-26T09:00:33.211Z,33.80
2023-02-26T09:03:22.942Z,33.60
2023-02-26T09:06:11.312Z,33.20
2023-02-26T09:08:59.504Z,33.00
2023-02-26T09:11:47.789Z,32.90
2023-02-26T09:14:36.101Z,32.70
2023-02-26T09:17:24.346Z,33.10
2023-02-26T09:20:15.408Z,34.00
2023-02-26T09:23:03.752Z,34.60
2023-02-26T09:25:55.192Z,35.00
2023-02-26T09:28:43.439Z,34.40
2023-02-26T09:31:32.713Z,34.00
2023-02-26T09:34:21.303Z,33.60
2023-02-26T09:37:11.424Z,33.30
2023-02-26T09:39:59.648Z,32.80
2023-02-26T09:43:11.700Z,32.00
2023-02-26T09:46:05.679Z,31.60
2023-02-26T09:49:03.541Z,31.10
2023-02-26T09:51:55.612Z,29.50
2023-02-26T09:54:49.235Z,30.30
2023-02-26T09:57:42.616Z,30.60
2023-02-26T10:00:37.460Z,30.60
2023-02-26T10:03:33.776Z,30.20
2023-02-26T10:06:26.034Z,29.60
2023-02-26T10:09:28.351Z,29.90
2023-02-26T10:12:20.238Z,28.20
2023-02-26T10:15:14.478Z,29.40
2023-02-26T10:18:09.349Z,29.00
2023-02-26T10:21:01.238Z,29.10
2023-02-26T10:23:56.281Z,27.60
2023-02-26T10:26:47.713Z,27.80
2023-02-26T10:29:43.692Z,27.30
2023-02-26T10:32:37.575Z,27.40
2023-02-26T10:35:30.212Z,25.80
2023-02-26T10:38:24.653Z,26.30
2023-02-26T10:41:16.981Z,25.80
2023-02-26T10:44:17.388Z,26.10
2023-02-26T10:47:16.457Z,25.90
2023-02-26T10:50:06.276Z,25.50
2023-02-26T10:52:55.762Z,25.90
2023-02-26T10:55:48.215Z,25.40
2023-02-26T10:58:36.645Z,25.90
2023-02-26T11:01:27.928Z,25.60
2023-02-26T11:04:20.246Z,26.00
2023-02-26T11:07:09.673Z,26.10
2023-02-26T11:09:58.508Z,26.10
2023-02-26T11:12:47.288Z,25.60
2023-02-26T11:15:35.630Z,25.90
2023-02-26T11:18:28.040Z,26.20
2023-02-26T11:21:20.804Z,26.70
2023-02-26T11:24:14.738Z,25.70
2023-02-26T11:27:06.303Z,26.10
2023-02-26T11:29:57.281Z,27.10
2023-02-26T11:32:46.657Z,27.20
2023-02-26T11:35:35.267Z,26.90
2023-02-26T11:38:27.978Z,26.40
2023-02-26T11:41:18.684Z,24.80
2023-02-26T11:44:09.817Z,25.20
2023-02-26T11:46:59.964Z,25.80
2023-02-26T11:49:52.703Z,27.60
2023-02-26T11:52:44.377Z,26.40
2023-02-26T11:55:37.696Z,27.90
2023-02-26T11:58:26.456Z,28.60
2023-02-26T12:01:17.723Z,28.50
2023-02-26T12:04:06.105Z,27.80
2023-02-26T12:06:55.625Z,28.10
2023-02-26T12:09:44.111Z,28.20
2023-02-26T12:12:58.849Z,28.00
2023-02-26T12:15:56.784Z,28.50
2023-02-26T12:18:58.857Z,29.10
2023-02-26T12:22:17.327Z,29.00
2023-02-26T12:25:21.795Z,28.40
2023-02-26T12:28:50.756Z,27.00
2023-02-26T12:32:10.814Z,27.20
2023-02-26T12:35:31.356Z,26.50
2023-02-26T12:38:24.953Z,26.90
2023-02-26T12:41:40.584Z,26.90
2023-02-26T12:44:55.861Z,27.30
2023-02-26T12:47:55.666Z,26.00
2023-02-26T12:50:59.734Z,27.10
2023-02-26T12:54:01.893Z,26.90
2023-02-26T12:57:07.449Z,26.20
2023-02-26T13:00:16.213Z,27.20
2023-02-26T13:03:40.007Z,27.40
2023-02-26T13:06:57.613Z,27.90
2023-02-26T13:09:55.751Z,27.80
2023-02-26T13:12:54.931Z,27.70
2023-02-26T13:15:59.753Z,27.90
2023-02-26T13:18:55.075Z,27.80
2023-02-26T13:21:48.011Z,26.40
2023-02-26T13:24:39.480Z,27.40
2023-02-26T13:27:32.848Z,28.50
2023-02-26T13:30:26.734Z,28.90
2023-02-26T13:33:20.872Z,28.50
2023-02-26T13:36:11.726Z,29.00
2023-02-26T13:39:27.440Z,27.80
2023-02-26T13:42:31.034Z,28.10
2023-02-26T13:45:37.838Z,28.30
2023-02-26T13:48:42.390Z,28.10
2023-02-26T13:51:36.173Z,27.70
2023-02-26T13:54:36.303Z,28.40
2023-02-26T13:57:36.200Z,28.10
2023-02-26T14:00:28.543Z,28.60
2023-02-26T14:06:46.404Z,28.10
2023-02-26T14:09:46.911Z,27.20
2023-02-26T14:12:39.185Z,28.10
2023-02-26T14:15:42.168Z,29.20
2023-02-26T14:18:38.727Z,29.40
2023-02-26T14:21:52.592Z,29.30
2023-02-26T14:24:46.008Z,27.60
2023-02-26T14:27:36.047Z,28.50
2023-02-26T14:30:31.077Z,29.20
2023-02-26T14:33:27.824Z,29.20
2023-02-26T14:36:24.773Z,31.70
2023-02-26T14:39:29.604Z,30.60
2023-02-26T14:42:22.543Z,29.70
2023-02-26T14:45:29.827Z,29.30
2023-02-26T14:48:20.587Z,28.60
2023-02-26T14:51:21.763Z,28.80
2023-02-26T14:54:40.215Z,29.40
2023-02-26T14:57:37.267Z,28.60
2023-02-26T15:00:37.892Z,28.00
2023-02-26T15:03:52.666Z,29.00
2023-02-26T15:07:02.549Z,29.00
2023-02-26T15:10:04.153Z,29.50
2023-02-26T15:13:06.754Z,29.90
2023-02-26T15:15:58.497Z,29.20
2023-02-26T15:19:07.678Z,28.50
2023-02-26T15:22:08.994Z,28.80
2023-02-26T15:25:01.207Z,28.30
2023-02-26T15:27:50.054Z,28.30
2023-02-26T15:30:38.750Z,28.10
2023-02-26T15:33:27.512Z,28.50
2023-02-26T15:36:18.846Z,28.80
2023-02-26T15:39:10.319Z,28.50
2023-02-26T15:41:59.966Z,28.50
2023-02-26T15:44:56.769Z,28.60
2023-02-26T15:47:45.705Z,27.20
2023-02-26T15:50:37.426Z,27.10
2023-02-26T15:53:31.653Z,27.80
2023-02-26T15:56:24.611Z,28.80
2023-02-26T15:59:19.423Z,28.70
2023-02-26T16:02:13.778Z,28.80
2023-02-26T16:05:03.467Z,28.90
2023-02-26T16:07:52.150Z,28.40
2023-02-26T16:10:42.448Z,27.30
2023-02-26T16:13:33.457Z,27.30
2023-02-26T16:16:27.210Z,29.10
2023-02-26T16:19:16.566Z,28.70
2023-02-26T16:22:11.107Z,29.20
2023-02-26T16:25:02.570Z,30.20
2023-02-26T16:27:56.057Z,33.20
2023-02-26T16:30:48.520Z,33.10
2023-02-26T16:33:39.237Z,33.20
2023-02-26T16:36:30.979Z,33.50
2023-02-26T16:39:24.582Z,32.50
2023-02-26T16:42:16.805Z,32.50
2023-02-26T16:45:23.612Z,31.80
2023-02-26T16:48:17.102Z,30.80
2023-02-26T16:51:12.220Z,31.90
2023-02-26T16:54:03.176Z,31.40
2023-02-26T16:56:59.562Z,31.80
2023-02-26T16:59:52.416Z,31.80
2023-02-26T17:02:44.530Z,30.70
2023-02-26T17:05:36.887Z,31.60
2023-02-26T17:08:32.905Z,31.70
2023-02-26T17:11:26.605Z,32.10
2023-02-26T17:14:22.501Z,32.20
2023-02-26T17:17:11.393Z,32.10
2023-02-26T17:19:59.804Z,37.30
2023-02-26T17:22:48.068Z,38.40
2023-02-26T17:25:39.821Z,37.30
2023-02-26T17:28:31.276Z,36.70
2023-02-26T17:31:20.140Z,36.60
2023-02-26T17:34:12.272Z,36.20
2023-02-26T17:37:05.605Z,36.00
2023-02-26T17:39:54.073Z,35.80
2023-02-26T17:42:43.752Z,35.60
2023-02-26T17:45:32.358Z,35.60
2023-02-26T17:48:21.064Z,36.10
2023-02-26T17:51:11.494Z,35.80
2023-02-26T17:53:59.856Z,36.50
2023-02-26T17:56:49.715Z,42.50
2023-02-26T17:59:39.492Z,45.00
2023-02-26T18:02:28.078Z,45.70
2023-02-26T18:05:16.409Z,46.40
2023-02-26T18:08:04.915Z,46.10
2023-02-26T18:10:54.655Z,44.10
2023-02-26T18:13:43.553Z,42.40
2023-02-26T18:16:39.031Z,41.40
2023-02-26T18:19:28.098Z,40.30
2023-02-26T18:22:18.947Z,39.40
2023-02-26T18:25:07.627Z,38.70
2023-02-26T18:28:00.333Z,39.00
2023-02-26T18:30:49.234Z,38.20
2023-02-26T18:33:41.206Z,37.50
2023-02-26T18:36:35.646Z,37.10
2023-02-26T18:39:27.491Z,40.00
2023-02-26T18:42:21.879Z,38.80
2023-02-26T18:45:11.837Z,37.80
2023-02-26T18:48:00.109Z,37.30
2023-02-26T18:50:50.153Z,36.80
2023-02-26T18:53:38.404Z,36.40
2023-02-26T18:56:26.740Z,36.10
2023-02-26T18:59:15.000Z,36.00
2023-02-26T19:02:05.236Z,36.00
2023-02-26T19:04:53.886Z,36.00
2023-02-26T19:07:43.765Z,36.00
2023-02-26T19:10:32.004Z,36.00
2023-02-26T19:13:20.265Z,36.00
2023-02-26T19:16:08.721Z,36.00
2023-02-26T19:18:57.153Z,35.90
2023-02-26T19:21:45.438Z,35.70
2023-02-26T19:24:35.254Z,35.60
2023-02-26T19:27:23.534Z,35.40
2023-02-26T19:30:12.744Z,35.30
2023-02-26T19:33:01.141Z,35.20
2023-02-26T19:35:49.618Z,35.20
2023-02-26T19:38:38.041Z,35.10
2023-02-26T19:41:28.355Z,35.10
2023-02-26T19:44:17.458Z,35.00
2023-02-26T19:47:06.003Z,34.90
2023-02-26T19:49:54.269Z,34.80
2023-02-26T19:52:42.609Z,34.70
2023-02-26T19:55:30.903Z,34.60
2023-02-26T19:58:20.742Z,34.60
2023-02-26T20:01:08.931Z,34.50
2023-02-26T20:03:57.337Z,34.50
2023-02-26T20:06:45.892Z,34.60
2023-02-26T20:09:34.365Z,34.60
2023-02-26T20:12:22.715Z,34.60
2023-02-26T20:15:13.222Z,34.80
2023-02-26T20:18:01.447Z,38.20
2023-02-26T20:20:49.667Z,37.20
2023-02-26T20:23:39.475Z,36.80
2023-02-26T20:26:27.821Z,36.50
2023-02-26T20:29:18.429Z,36.30
2023-02-26T20:32:08.518Z,36.20
2023-02-26T20:34:56.928Z,36.10
2023-02-26T20:37:45.543Z,36.60
2023-02-26T20:40:34.010Z,36.40
2023-02-26T20:43:22.246Z,36.40
2023-02-26T20:46:10.573Z,36.30
2023-02-26T20:49:02.226Z,36.20
2023-02-26T20:51:50.995Z,36.00
2023-02-26T20:54:39.262Z,36.00
2023-02-26T20:57:27.633Z,35.90
2023-02-26T21:00:17.052Z,35.90
2023-02-26T21:03:05.519Z,35.90
2023-02-26T21:05:55.315Z,35.90
2023-02-26T21:08:44.748Z,35.90
2023-02-26T21:11:36.806Z,36.00
2023-02-26T21:14:26.900Z,36.00
2023-02-26T21:17:15.278Z,36.00
2023-02-26T21:20:05.962Z,35.90
2023-02-26T21:22:55.692Z,35.80
2023-02-26T21:25:44.007Z,35.70
2023-02-26T21:28:32.550Z,35.70
2023-02-26T21:31:22.995Z,35.60
2023-02-26T21:34:30.272Z,35.60
2023-02-26T21:37:19.821Z,35.70
2023-02-26T21:40:11.436Z,35.80
2023-02-26T21:43:00.072Z,35.70
2023-02-26T21:45:49.641Z,35.60
2023-02-26T21:48:37.907Z,35.50
2023-02-26T21:51:27.088Z,35.40
2023-02-26T21:54:15.758Z,35.30
2023-02-26T21:57:05.614Z,35.20
2023-02-26T21:59:53.874Z,35.10
2023-02-26T22:02:44.081Z,35.00
2023-02-26T22:05:32.656Z,35.00
2023-02-26T22:08:21.249Z,35.00
2023-02-26T22:11:09.685Z,35.00
2023-02-26T22:13:59.434Z,34.90
2023-02-26T22:16:47.654Z,34.90
2023-02-26T22:19:36.036Z,34.80
2023-02-26T22:22:24.611Z,34.70
2023-02-26T22:25:13.559Z,34.70
2023-02-26T22:28:01.966Z,34.60
2023-02-26T22:30:51.894Z,34.70
2023-02-26T22:33:40.420Z,35.50
2023-02-26T22:36:30.216Z,35.40
2023-02-26T22:39:18.364Z,35.30
2023-02-26T22:42:06.783Z,35.30
2023-02-26T22:44:55.017Z,35.40
2023-02-26T22:47:45.666Z,35.40
2023-02-26T22:50:34.286Z,35.50
2023-02-26T22:53:22.589Z,35.50
2023-02-26T22:56:11.742Z,35.50
2023-02-26T22:59:00.217Z,35.50
2023-02-26T23:01:48.504Z,35.60
2023-02-26T23:04:38.457Z,35.70
2023-02-26T23:07:26.891Z,35.60
2023-02-26T23:10:18.665Z,35.60
2023-02-26T23:13:07.132Z,35.70
2023-02-26T23:15:55.494Z,35.70
2023-02-26T23:18:45.615Z,35.70
2023-02-26T23:21:35.289Z,35.70
2023-02-26T23:24:23.591Z,35.70
2023-02-26T23:27:11.839Z,35.80
2023-02-26T23:30:00.141Z,35.80
2023-02-26T23:32:48.525Z,35.80
2023-02-26T23:35:37.046Z,35.80
2023-02-26T23:38:26.615Z,35.80
2023-02-26T23:41:15.210Z,35.80
2023-02-26T23:44:03.971Z,35.80
2023-02-26T23:46:52.468Z,35.80
2023-02-26T23:49:40.888Z,35.80
2023-02-26T23:52:29.295Z,35.90
2023-02-26T23:55:19.166Z,35.90
2023-02-26T23:58:07.515Z,35.90
